Rush Springs, Oklahoma
Current Conditions -  °F | °C
As of 12:15 AM on Monday 22 Dec 2014 (Local Time) from KDUC Reporting Station
NA  
Wind Chill: 43°   Ceiling: NA
Heat Index: 48°   Visibility: NA
Dew Point: 48°   Wind: 13mph
Humidity: 100%   Direction: 150°SSE
Pressure: 29.61"   Gusts: NA
Location:  34.78°N, 97.96°W
Report Text: KDUC 220615Z AUTO 15011KT 09/09 A2961 RMK AO2 PWINO
Loading
Personal Weather Stations






























Interactive Weather Map New forecast layout! Learn more

10-Day Weather Forecast

Advertisements
Track Severe Weather on mobile